Crater Lake Natl Park, Oregon
Current Conditions -  °F | °C
As of 3:53 PM on Friday 24 Oct 2014 (Local Time) from KMFR Reporting Station
Clear Clear  
Wind Chill: 68°   Ceiling: Unl
Heat Index: 68°   Visibility: 10mi
Dew Point: 53°   Wind: 3mph
Humidity: 59%   Direction: 300°WNW
Pressure: 29.76"   Gusts: NA
Location:  42.82°N, 122.13°W
Report Text: KMFR 242253Z 30003KT 10SM CLR 20/12 A2976 RMK AO2 SLP072 T02000117
Loading
Personal Weather Stations






























Interactive Weather Map
Tropical Storm Tracking
New forecast layout! Learn more

10-Day Weather Forecast

Advertisements
Track Severe Weather on mobile